createdAt,value
2019-03-09T00:00:04.144Z,1004.46
2019-03-09T00:01:02.078Z,1004.46
2019-03-09T00:02:02.276Z,1004.46
2019-03-09T00:03:02.443Z,1004.45
2019-03-09T00:04:01.686Z,1004.45
2019-03-09T00:05:02.055Z,1004.45
2019-03-09T00:06:02.284Z,1004.45
2019-03-09T00:07:02.397Z,1004.48
2019-03-09T00:08:01.666Z,1004.48
2019-03-09T00:09:01.829Z,1004.48
2019-03-09T00:10:02.088Z,1004.48
2019-03-09T00:11:02.294Z,1004.31
2019-03-09T00:12:02.522Z,1004.31
2019-03-09T00:13:01.711Z,1004.31
2019-03-09T00:14:02.239Z,1004.31
2019-03-09T00:15:02.152Z,1004.17
2019-03-09T00:16:02.428Z,1004.17
2019-03-09T00:17:02.603Z,1004.17
2019-03-09T00:18:01.805Z,1004.25
2019-03-09T00:19:02.068Z,1004.25
2019-03-09T00:20:02.290Z,1004.25
2019-03-09T00:21:02.469Z,1004.25
2019-03-09T00:22:01.996Z,1004.1
2019-03-09T00:23:01.875Z,1004.1
2019-03-09T00:24:02.121Z,1004.1
2019-03-09T00:25:02.304Z,1004.1
2019-03-09T00:26:02.563Z,1004.37
2019-03-09T00:27:01.765Z,1004.37
2019-03-09T00:28:02.004Z,1004.37
2019-03-09T00:29:02.484Z,1004.37
2019-03-09T00:30:02.536Z,1004.29
2019-03-09T00:31:01.997Z,1004.29
2019-03-09T00:32:01.985Z,1004.29
2019-03-09T00:33:02.203Z,1004.29
2019-03-09T00:34:02.481Z,1004.06
2019-03-09T00:35:01.739Z,1004.06
2019-03-09T00:36:02.024Z,1004.06
2019-03-09T00:37:02.133Z,1004.06
2019-03-09T00:38:02.290Z,1004.29
2019-03-09T00:39:02.507Z,1004.29
2019-03-09T00:40:02.500Z,1004.29
2019-03-09T00:41:01.803Z,1004.29
2019-03-09T00:42:01.996Z,1004.23
2019-03-09T00:43:02.217Z,1004.23
2019-03-09T00:44:02.498Z,1004.23
2019-03-09T00:45:01.757Z,1004.23
2019-03-09T00:46:01.864Z,1004.29
2019-03-09T00:47:02.148Z,1004.29
2019-03-09T00:48:02.637Z,1004.29
2019-03-09T00:49:02.512Z,1004.29
2019-03-09T00:50:01.781Z,1004.24
2019-03-09T00:51:01.956Z,1004.24
2019-03-09T00:52:02.157Z,1004.24
2019-03-09T00:53:02.388Z,1004.24
2019-03-09T00:54:02.541Z,1004.17
2019-03-09T00:55:01.901Z,1004.17
2019-03-09T00:56:02.003Z,1004.17
2019-03-09T00:57:02.139Z,1004.17
2019-03-09T00:58:02.430Z,1004.28
2019-03-09T00:59:01.850Z,1004.28
2019-03-09T01:00:04.151Z,1004.28
2019-03-09T01:01:01.835Z,1004.28
2019-03-09T01:02:01.929Z,1004.33
2019-03-09T01:03:02.150Z,1004.33
2019-03-09T01:04:02.322Z,1004.33
2019-03-09T01:05:02.608Z,1004.33
2019-03-09T01:06:01.946Z,1004.32
2019-03-09T01:07:02.183Z,1004.32
2019-03-09T01:08:02.393Z,1004.32
2019-03-09T01:09:01.600Z,1004.32
2019-03-09T01:10:01.942Z,1004.54
2019-03-09T01:11:02.056Z,1004.54
2019-03-09T01:12:02.268Z,1004.54
2019-03-09T01:13:02.545Z,1004.54
2019-03-09T01:14:01.702Z,1004.35
2019-03-09T01:15:01.952Z,1004.35
2019-03-09T01:16:02.201Z,1004.35
2019-03-09T01:17:02.380Z,1004.35
2019-03-09T01:18:01.645Z,1004.47
2019-03-09T01:19:01.919Z,1004.47
2019-03-09T01:20:02.153Z,1004.47
2019-03-09T01:21:02.291Z,1004.47
2019-03-09T01:22:02.425Z,1004.47
2019-03-09T01:23:01.688Z,1004.47
2019-03-09T01:24:01.810Z,1004.47
2019-03-09T01:25:02.071Z,1004.47
2019-03-09T01:26:02.288Z,1004.57
2019-03-09T01:27:01.986Z,1004.57
2019-03-09T01:28:02.136Z,1004.57
2019-03-09T01:29:02.323Z,1004.57
2019-03-09T01:30:02.624Z,1004.48
2019-03-09T01:31:01.933Z,1004.48
2019-03-09T01:32:02.075Z,1004.48
2019-03-09T01:33:02.288Z,1004.48
2019-03-09T01:34:02.445Z,1004.48
2019-03-09T01:35:01.753Z,1004.48
2019-03-09T01:36:05.444Z,1004.48
2019-03-09T01:37:02.155Z,1004.48
2019-03-09T01:38:02.353Z,1004.51
2019-03-09T01:39:02.684Z,1004.51
2019-03-09T01:40:01.816Z,1004.51
2019-03-09T01:41:02.018Z,1004.51
2019-03-09T01:42:02.308Z,1004.52
2019-03-09T01:43:02.464Z,1004.52
2019-03-09T01:44:01.717Z,1004.52
2019-03-09T01:45:02.022Z,1004.52
2019-03-09T01:46:02.233Z,1004.56
2019-03-09T01:47:01.899Z,1004.56
2019-03-09T01:48:02.064Z,1004.56
2019-03-09T01:49:02.371Z,1004.56
2019-03-09T01:50:02.671Z,1004.46
2019-03-09T01:51:01.905Z,1004.46
2019-03-09T01:52:02.077Z,1004.46
2019-03-09T01:53:02.272Z,1004.46
2019-03-09T01:54:02.480Z,1004.64
2019-03-09T01:55:02.036Z,1004.64
2019-03-09T01:56:02.117Z,1004.64
2019-03-09T01:57:02.370Z,1004.67
2019-03-09T01:58:01.608Z,1004.67
2019-03-09T01:59:01.916Z,1004.67
2019-03-09T02:00:05.609Z,1004.67
2019-03-09T02:01:02.231Z,1004.66
2019-03-09T02:02:02.442Z,1004.66
2019-03-09T02:03:01.618Z,1004.66
2019-03-09T02:04:01.858Z,1004.66
2019-03-09T02:05:02.195Z,1004.6
2019-03-09T02:06:02.436Z,1004.6
2019-03-09T02:07:01.602Z,1004.6
2019-03-09T02:08:01.795Z,1004.6
2019-03-09T02:09:02.022Z,1004.48
2019-03-09T02:10:02.268Z,1004.48
2019-03-09T02:11:02.556Z,1004.48
2019-03-09T02:12:01.792Z,1004.48
2019-03-09T02:13:02.056Z,1004.61
2019-03-09T02:14:02.203Z,1004.61
2019-03-09T02:15:02.497Z,1004.61
2019-03-09T02:16:01.730Z,1004.61
2019-03-09T02:17:02.051Z,1004.37
2019-03-09T02:18:02.264Z,1004.37
2019-03-09T02:19:02.458Z,1004.37
2019-03-09T02:20:01.731Z,1004.37
2019-03-09T02:21:01.942Z,1004.48
2019-03-09T02:22:02.156Z,1004.48
2019-03-09T02:23:02.425Z,1004.48
2019-03-09T02:24:02.631Z,1004.48
2019-03-09T02:25:01.792Z,1004.64
2019-03-09T02:26:02.078Z,1004.64
2019-03-09T02:27:02.266Z,1004.64
2019-03-09T02:28:02.505Z,1004.64
2019-03-09T02:29:01.696Z,1004.7
2019-03-09T02:30:02.097Z,1004.7
2019-03-09T02:31:02.240Z,1004.7
2019-03-09T02:32:02.594Z,1004.7
2019-03-09T02:33:01.796Z,1004.71
2019-03-09T02:34:01.986Z,1004.71
2019-03-09T02:35:02.211Z,1004.71
2019-03-09T02:36:02.455Z,1004.71
2019-03-09T02:37:03.132Z,1004.84
2019-03-09T02:38:01.819Z,1004.84
2019-03-09T02:39:02.087Z,1004.84
2019-03-09T02:40:02.384Z,1004.84
2019-03-09T02:41:02.568Z,1004.93
2019-03-09T02:42:02.329Z,1004.93
2019-03-09T02:43:02.617Z,1004.93
2019-03-09T02:44:01.864Z,1004.93
2019-03-09T02:45:02.055Z,1004.87
2019-03-09T02:46:02.256Z,1004.87
2019-03-09T02:47:02.507Z,1004.87
2019-03-09T02:48:02.608Z,1004.87
2019-03-09T02:49:01.869Z,1005.09
2019-03-09T02:50:02.274Z,1005.09
2019-03-09T02:51:02.541Z,1005.09
2019-03-09T02:52:01.672Z,1005.09
2019-03-09T02:53:01.947Z,1005.01
2019-03-09T02:54:02.196Z,1005.01
2019-03-09T02:55:02.428Z,1005.01
2019-03-09T02:56:02.615Z,1005.01
2019-03-09T02:57:01.812Z,1005.21
2019-03-09T02:58:02.063Z,1005.21
2019-03-09T02:59:02.270Z,1005.21
2019-03-09T03:00:04.421Z,1005.21
2019-03-09T03:01:02.295Z,1005.12
2019-03-09T03:02:02.461Z,1005.12
2019-03-09T03:03:01.718Z,1005.12
2019-03-09T03:04:01.918Z,1005.12
2019-03-09T03:05:02.258Z,1005.22
2019-03-09T03:06:02.513Z,1005.22
2019-03-09T03:07:01.896Z,1005.22
2019-03-09T03:08:02.158Z,1005.22
2019-03-09T03:09:02.342Z,1005.1
2019-03-09T03:10:02.589Z,1005.1
2019-03-09T03:11:01.812Z,1005.1
2019-03-09T03:12:02.064Z,1005.1
2019-03-09T03:13:02.300Z,1005.47
2019-03-09T03:14:02.486Z,1005.47
2019-03-09T03:15:01.659Z,1005.47
2019-03-09T03:16:01.907Z,1005.47
2019-03-09T03:17:02.059Z,1005.43
2019-03-09T03:18:02.377Z,1005.43
2019-03-09T03:19:02.609Z,1005.43
2019-03-09T03:20:01.900Z,1005.43
2019-03-09T03:21:02.141Z,1005.33
2019-03-09T03:22:02.304Z,1005.33
2019-03-09T03:23:02.637Z,1005.33
2019-03-09T03:24:01.793Z,1005.33
2019-03-09T03:25:02.041Z,1005.38
2019-03-09T03:26:02.204Z,1005.38
2019-03-09T03:27:02.446Z,1005.38
2019-03-09T03:28:01.739Z,1005.38
2019-03-09T03:29:01.998Z,1005.48
2019-03-09T03:30:02.305Z,1005.48
2019-03-09T03:31:02.421Z,1005.48
2019-03-09T03:32:01.647Z,1005.48
2019-03-09T03:33:01.912Z,1005.61
2019-03-09T03:34:02.142Z,1005.61
2019-03-09T03:35:02.363Z,1005.61
2019-03-09T03:36:02.492Z,1005.48
2019-03-09T03:37:01.665Z,1005.48
2019-03-09T03:38:02.380Z,1005.48
2019-03-09T03:39:02.405Z,1005.48
2019-03-09T03:40:01.722Z,1005.37
2019-03-09T03:41:01.945Z,1005.37
2019-03-09T03:42:02.118Z,1005.37
2019-03-09T03:43:02.314Z,1005.37
2019-03-09T03:44:02.486Z,1005.2
2019-03-09T03:45:01.729Z,1005.2
2019-03-09T03:46:02.017Z,1005.2
2019-03-09T03:47:02.168Z,1005.2
2019-03-09T03:48:02.370Z,1005.25
2019-03-09T03:49:04.338Z,1005.25
2019-03-09T03:50:01.794Z,1005.25
2019-03-09T03:51:02.046Z,1005.25
2019-03-09T03:52:02.276Z,1005.25
2019-03-09T03:53:02.603Z,1005.25
2019-03-09T03:54:01.741Z,1005.25
2019-03-09T03:55:02.079Z,1005.25
2019-03-09T03:56:02.128Z,1005.38
2019-03-09T03:57:02.396Z,1005.38
2019-03-09T03:58:02.693Z,1005.38
2019-03-09T03:59:01.823Z,1005.38
2019-03-09T04:00:02.190Z,1005.41
2019-03-09T04:01:02.405Z,1005.41
2019-03-09T04:02:02.660Z,1005.41
2019-03-09T04:03:01.873Z,1005.41
2019-03-09T04:04:01.996Z,1005.35
2019-03-09T04:05:02.320Z,1005.35
2019-03-09T04:06:02.568Z,1005.35
2019-03-09T04:07:01.813Z,1005.35
2019-03-09T04:08:02.098Z,1005.49
2019-03-09T04:09:02.062Z,1005.49
2019-03-09T04:10:02.381Z,1005.49
2019-03-09T04:11:02.608Z,1005.49
2019-03-09T04:12:01.799Z,1005.49
2019-03-09T04:13:02.090Z,1005.49
2019-03-09T04:14:02.216Z,1005.49
2019-03-09T04:15:02.583Z,1005.49
2019-03-09T04:16:01.768Z,1005.61
2019-03-09T04:17:01.951Z,1005.61
2019-03-09T04:18:02.196Z,1005.61
2019-03-09T04:19:02.429Z,1005.61
2019-03-09T04:20:01.650Z,1005.61
2019-03-09T04:21:02.443Z,1005.61
2019-03-09T04:22:02.156Z,1005.61
2019-03-09T04:23:02.363Z,1005.61
2019-03-09T04:24:02.624Z,1005.79
2019-03-09T04:25:01.861Z,1005.79
2019-03-09T04:26:02.020Z,1005.79
2019-03-09T04:27:02.256Z,1005.79
2019-03-09T04:28:02.565Z,1005.67
2019-03-09T04:29:01.700Z,1005.67
2019-03-09T04:30:01.996Z,1005.67
2019-03-09T04:31:02.229Z,1005.67
2019-03-09T04:32:02.429Z,1005.73
2019-03-09T04:33:01.716Z,1005.73
2019-03-09T04:34:01.879Z,1005.73
2019-03-09T04:35:02.254Z,1005.73
2019-03-09T04:36:02.406Z,1005.78
2019-03-09T04:37:02.518Z,1005.78
2019-03-09T04:38:01.764Z,1005.78
2019-03-09T04:39:02.033Z,1005.78
2019-03-09T04:40:02.290Z,1005.84
2019-03-09T04:41:02.412Z,1005.84
2019-03-09T04:42:01.684Z,1005.84
2019-03-09T04:43:01.942Z,1005.84
2019-03-09T04:44:02.079Z,1005.67
2019-03-09T04:45:02.419Z,1005.67
2019-03-09T04:46:01.706Z,1005.67
2019-03-09T04:47:01.917Z,1005.67
2019-03-09T04:48:02.196Z,1005.82
2019-03-09T04:49:02.447Z,1005.82
2019-03-09T04:50:01.790Z,1005.82
2019-03-09T04:51:01.886Z,1005.82
2019-03-09T04:52:02.216Z,1005.74
2019-03-09T04:53:02.360Z,1005.74
2019-03-09T04:54:01.701Z,1005.74
2019-03-09T04:55:02.023Z,1005.74
2019-03-09T04:56:02.116Z,1005.92
2019-03-09T04:57:02.373Z,1005.92
2019-03-09T04:58:02.556Z,1005.92
2019-03-09T04:59:01.807Z,1005.92
2019-03-09T05:00:04.697Z,1005.98
2019-03-09T05:01:02.550Z,1005.98
2019-03-09T05:02:01.716Z,1005.98
2019-03-09T05:03:02.017Z,1005.98
2019-03-09T05:04:02.253Z,1006.03
2019-03-09T05:05:02.569Z,1006.03
2019-03-09T05:06:01.763Z,1006.03
2019-03-09T05:07:02.017Z,1006.03
2019-03-09T05:08:02.292Z,1006.01
2019-03-09T05:09:02.448Z,1006.01
2019-03-09T05:10:01.709Z,1006.01
2019-03-09T05:11:01.901Z,1006.01
2019-03-09T05:12:02.124Z,1005.94
2019-03-09T05:13:02.326Z,1005.94
2019-03-09T05:14:02.495Z,1005.94
2019-03-09T05:15:01.843Z,1005.94
2019-03-09T05:16:02.017Z,1006.23
2019-03-09T05:17:02.238Z,1006.23
2019-03-09T05:18:02.514Z,1006.23
2019-03-09T05:19:01.642Z,1006.23
2019-03-09T05:20:01.915Z,1006.36
2019-03-09T05:21:02.124Z,1006.36
2019-03-09T05:22:02.312Z,1006.36
2019-03-09T05:23:02.543Z,1006.66
2019-03-09T05:24:01.769Z,1006.66
2019-03-09T05:25:02.079Z,1006.66
2019-03-09T05:26:02.358Z,1006.66
2019-03-09T05:27:02.492Z,1006.58
2019-03-09T05:28:01.748Z,1006.58
2019-03-09T05:29:02.016Z,1006.58
2019-03-09T05:30:02.197Z,1006.58
2019-03-09T05:31:02.488Z,1006.47
2019-03-09T05:32:01.682Z,1006.47
2019-03-09T05:33:01.964Z,1006.47
2019-03-09T05:34:02.093Z,1006.47
2019-03-09T05:35:02.388Z,1006.39
2019-03-09T05:36:02.546Z,1006.39
2019-03-09T05:37:01.711Z,1006.39
2019-03-09T05:38:01.982Z,1006.39
2019-03-09T05:39:02.226Z,1006.08
2019-03-09T05:40:02.401Z,1006.08
2019-03-09T05:41:02.555Z,1006.08
2019-03-09T05:42:01.791Z,1006.08
2019-03-09T05:43:02.190Z,1005.87
2019-03-09T05:44:02.260Z,1005.87
2019-03-09T05:45:02.542Z,1005.87
2019-03-09T05:46:01.736Z,1005.87
2019-03-09T05:47:01.938Z,1006.24
2019-03-09T05:48:02.205Z,1006.24
2019-03-09T05:49:02.351Z,1006.24
2019-03-09T05:50:05.062Z,1006.24
2019-03-09T05:51:01.907Z,1006.38
2019-03-09T05:52:02.035Z,1006.38
2019-03-09T05:53:02.315Z,1006.38
2019-03-09T05:54:02.488Z,1006.38
2019-03-09T05:55:01.792Z,1006.55
2019-03-09T05:56:02.060Z,1006.55
2019-03-09T05:57:02.208Z,1006.55
2019-03-09T05:58:02.438Z,1006.55
2019-03-09T05:59:01.684Z,1006.32
2019-03-09T06:00:04.041Z,1006.32
2019-03-09T06:01:01.974Z,1006.32
2019-03-09T06:02:02.143Z,1006.32
2019-03-09T06:03:02.356Z,1006.59
2019-03-09T06:04:02.552Z,1006.59
2019-03-09T06:05:01.799Z,1006.59
2019-03-09T06:06:02.142Z,1006.59
2019-03-09T06:07:02.264Z,1006.57
2019-03-09T06:08:02.466Z,1006.57
2019-03-09T06:09:01.766Z,1006.57
2019-03-09T06:10:02.057Z,1006.57
2019-03-09T06:11:02.343Z,1006.81
2019-03-09T06:12:02.554Z,1006.81
2019-03-09T06:13:01.827Z,1006.81
2019-03-09T06:14:02.037Z,1006.81
2019-03-09T06:15:02.312Z,1006.84
2019-03-09T06:16:02.524Z,1006.84
2019-03-09T06:17:01.712Z,1006.84
2019-03-09T06:18:01.936Z,1006.84
2019-03-09T06:19:02.141Z,1006.89
2019-03-09T06:20:02.431Z,1006.89
2019-03-09T06:21:02.584Z,1006.89
2019-03-09T06:22:01.812Z,1006.89
2019-03-09T06:23:01.982Z,1006.91
2019-03-09T06:24:02.192Z,1006.91
2019-03-09T06:25:02.661Z,1006.91
2019-03-09T06:26:02.597Z,1006.91
2019-03-09T06:27:01.816Z,1007
2019-03-09T06:28:02.152Z,1007
2019-03-09T06:29:02.232Z,1007
2019-03-09T06:30:02.510Z,1007
2019-03-09T06:31:01.704Z,1006.49
2019-03-09T06:32:01.922Z,1006.49
2019-03-09T06:33:02.169Z,1006.49
2019-03-09T06:34:02.360Z,1006.49
2019-03-09T06:35:02.686Z,1007.14
2019-03-09T06:36:01.831Z,1007.14
2019-03-09T06:37:02.052Z,1007.14
2019-03-09T06:38:02.245Z,1007.14
2019-03-09T06:39:02.490Z,1006.89
2019-03-09T06:40:01.775Z,1006.89
2019-03-09T06:41:03.617Z,1006.89
2019-03-09T06:42:02.236Z,1006.89
2019-03-09T06:43:02.417Z,1007.15
2019-03-09T06:44:01.646Z,1007.15
2019-03-09T06:45:01.852Z,1007.15
2019-03-09T06:46:02.054Z,1007.15
2019-03-09T06:47:02.250Z,1006.95
2019-03-09T06:48:02.447Z,1006.95
2019-03-09T06:49:01.745Z,1006.95
2019-03-09T06:50:02.014Z,1006.95
2019-03-09T06:51:02.272Z,1007.46
2019-03-09T06:52:02.445Z,1007.46
2019-03-09T06:53:03.351Z,1007.46
2019-03-09T06:54:01.870Z,1007.46
2019-03-09T06:55:02.148Z,1007.31
2019-03-09T06:56:02.372Z,1007.31
2019-03-09T06:57:02.558Z,1007.31
2019-03-09T06:58:01.836Z,1007.31
2019-03-09T06:59:01.981Z,1007.23
2019-03-09T07:00:05.106Z,1007.23
2019-03-09T07:01:01.984Z,1007.23
2019-03-09T07:02:02.201Z,1007.23
2019-03-09T07:03:02.420Z,1007.15
2019-03-09T07:04:02.591Z,1007.15
2019-03-09T07:05:01.827Z,1007.15
2019-03-09T07:06:02.095Z,1007.14
2019-03-09T07:07:02.353Z,1007.14
2019-03-09T07:08:02.619Z,1007.14
2019-03-09T07:09:01.790Z,1007.14
2019-03-09T07:10:02.086Z,1007.28
2019-03-09T07:11:02.226Z,1007.28
2019-03-09T07:12:02.413Z,1007.28
2019-03-09T07:13:01.655Z,1007.28
2019-03-09T07:14:01.826Z,1007.29
2019-03-09T07:15:02.230Z,1007.29
2019-03-09T07:16:02.350Z,1007.29
2019-03-09T07:17:02.470Z,1007.29
2019-03-09T07:18:01.701Z,1007.37
2019-03-09T07:19:01.906Z,1007.37
2019-03-09T07:20:13.228Z,1007.37
2019-03-09T07:21:02.038Z,1007.37
2019-03-09T07:22:02.176Z,1007.55
2019-03-09T07:23:02.460Z,1007.55
2019-03-09T07:24:01.707Z,1007.55
2019-03-09T07:25:02.018Z,1007.55
2019-03-09T07:26:02.195Z,1007.59
2019-03-09T07:27:02.391Z,1007.59
2019-03-09T07:28:01.690Z,1007.59
2019-03-09T07:29:01.898Z,1007.59
2019-03-09T07:30:02.162Z,1007.59
2019-03-09T07:31:02.458Z,1007.59
2019-03-09T07:32:02.686Z,1007.59
2019-03-09T07:33:01.837Z,1007.59
2019-03-09T07:34:01.834Z,1007.58
2019-03-09T07:35:02.246Z,1007.58
2019-03-09T07:36:02.389Z,1007.58
2019-03-09T07:37:02.693Z,1007.58
2019-03-09T07:38:01.833Z,1007.58
2019-03-09T07:39:01.982Z,1007.58
2019-03-09T07:40:02.356Z,1007.58
2019-03-09T07:41:02.538Z,1007.58
2019-03-09T07:42:02.596Z,1007.61
2019-03-09T07:43:01.873Z,1007.61
2019-03-09T07:44:02.020Z,1007.61
2019-03-09T07:45:02.279Z,1007.61
2019-03-09T07:46:02.414Z,1007.6
2019-03-09T07:47:02.600Z,1007.6
2019-03-09T07:48:01.846Z,1007.6
2019-03-09T07:49:02.080Z,1007.6
2019-03-09T07:50:02.375Z,1007.87
2019-03-09T07:51:02.662Z,1007.87
2019-03-09T07:52:01.874Z,1007.87
2019-03-09T07:53:02.143Z,1007.87
2019-03-09T07:54:02.330Z,1007.68
2019-03-09T07:55:02.571Z,1007.68
2019-03-09T07:56:01.834Z,1007.68
2019-03-09T07:57:02.070Z,1007.68
2019-03-09T07:58:02.379Z,1007.52
2019-03-09T07:59:02.524Z,1007.52
2019-03-09T08:00:04.676Z,1007.52
2019-03-09T08:01:02.435Z,1007.52
2019-03-09T08:02:01.647Z,1008.09
2019-03-09T08:03:06.390Z,1008.09
2019-03-09T08:04:02.106Z,1008.09
2019-03-09T08:05:02.335Z,1008.09
2019-03-09T08:06:02.579Z,1007.86
2019-03-09T08:07:01.718Z,1007.86
2019-03-09T08:08:01.949Z,1007.86
2019-03-09T08:09:02.283Z,1007.86
2019-03-09T08:10:02.450Z,1007.78
2019-03-09T08:11:01.771Z,1007.78
2019-03-09T08:12:01.955Z,1007.78
2019-03-09T08:13:02.188Z,1007.78
2019-03-09T08:14:02.400Z,1007.77
2019-03-09T08:15:01.799Z,1007.77
2019-03-09T08:16:01.833Z,1007.77
2019-03-09T08:17:01.704Z,1007.77
2019-03-09T08:18:01.875Z,1007.76
2019-03-09T08:19:02.101Z,1007.76
2019-03-09T08:20:02.338Z,1007.76
2019-03-09T08:21:02.534Z,1007.76
2019-03-09T08:22:01.651Z,1007.62
2019-03-09T08:23:01.887Z,1007.62
2019-03-09T08:24:02.077Z,1007.62
2019-03-09T08:25:02.301Z,1007.62
2019-03-09T08:26:02.556Z,1007.69
2019-03-09T08:27:01.817Z,1007.69
2019-03-09T08:28:01.987Z,1007.69
2019-03-09T08:29:02.303Z,1007.69
2019-03-09T08:30:03.017Z,1007.65
2019-03-09T08:31:02.711Z,1007.65
2019-03-09T08:32:01.781Z,1007.65
2019-03-09T08:33:01.954Z,1007.65
2019-03-09T08:34:02.175Z,1007.77
2019-03-09T08:35:02.442Z,1007.77
2019-03-09T08:36:02.363Z,1007.77
2019-03-09T08:37:02.461Z,1007.77
2019-03-09T08:38:02.611Z,1007.83
2019-03-09T08:39:01.782Z,1007.83
2019-03-09T08:40:02.089Z,1007.83
2019-03-09T08:41:02.336Z,1007.83
2019-03-09T08:42:02.511Z,1007.87
2019-03-09T08:43:02.623Z,1007.87
2019-03-09T08:44:01.806Z,1007.87
2019-03-09T08:45:02.155Z,1007.93
2019-03-09T08:46:02.266Z,1007.93
2019-03-09T08:47:02.365Z,1007.93
2019-03-09T08:48:02.515Z,1007.93
2019-03-09T08:49:01.665Z,1008.06
2019-03-09T08:50:01.997Z,1008.06
2019-03-09T08:51:02.188Z,1008.06
2019-03-09T08:52:02.390Z,1008.06
2019-03-09T08:53:01.599Z,1008.13
2019-03-09T08:54:01.864Z,1008.13
2019-03-09T08:55:02.129Z,1008.13
2019-03-09T08:56:02.403Z,1008.13
2019-03-09T08:57:02.534Z,1007.84
2019-03-09T08:58:02.604Z,1007.84
2019-03-09T08:59:01.921Z,1007.84
2019-03-09T09:00:04.369Z,1007.84
2019-03-09T09:01:02.162Z,1007.86
2019-03-09T09:02:02.355Z,1007.86
2019-03-09T09:03:02.283Z,1007.86
2019-03-09T09:04:02.545Z,1007.86
2019-03-09T09:05:01.747Z,1007.82
2019-03-09T09:06:02.451Z,1007.82
2019-03-09T09:07:01.619Z,1007.82
2019-03-09T09:08:04.456Z,1007.82
2019-03-09T09:09:02.480Z,1007.94
2019-03-09T09:10:02.726Z,1007.94
2019-03-09T09:11:01.870Z,1007.94
2019-03-09T09:12:02.086Z,1007.94
2019-03-09T09:13:02.322Z,1007.94
2019-03-09T09:14:02.492Z,1007.94
2019-03-09T09:15:02.312Z,1007.94
2019-03-09T09:16:02.385Z,1007.94
2019-03-09T09:17:02.580Z,1007.76
2019-03-09T09:18:01.752Z,1007.76
2019-03-09T09:19:01.923Z,1007.76
2019-03-09T09:20:02.226Z,1007.76
2019-03-09T09:21:02.536Z,1007.73
2019-03-09T09:22:01.648Z,1007.73
2019-03-09T09:23:01.836Z,1007.73
2019-03-09T09:24:02.021Z,1007.73
2019-03-09T09:25:02.425Z,1007.83
2019-03-09T09:26:02.535Z,1007.83
2019-03-09T09:27:01.723Z,1007.83
2019-03-09T09:28:01.959Z,1007.83
2019-03-09T09:29:01.914Z,1008.06
2019-03-09T09:30:02.252Z,1008.06
2019-03-09T09:31:02.378Z,1008.06
2019-03-09T09:32:02.557Z,1008.06
2019-03-09T09:33:01.738Z,1008.08
2019-03-09T09:34:01.984Z,1008.08
2019-03-09T09:35:02.268Z,1008.08
2019-03-09T09:36:02.403Z,1008.08
2019-03-09T09:37:01.633Z,1008.13
2019-03-09T09:38:01.743Z,1008.13
2019-03-09T09:39:01.951Z,1008.13
2019-03-09T09:40:02.223Z,1008.13
2019-03-09T09:41:02.480Z,1007.98
2019-03-09T09:42:01.589Z,1007.98
2019-03-09T09:43:01.784Z,1007.98
2019-03-09T09:44:02.018Z,1007.98
2019-03-09T09:45:02.288Z,1007.97
2019-03-09T09:46:02.484Z,1007.97
2019-03-09T09:47:01.753Z,1007.97
2019-03-09T09:48:01.880Z,1007.97
2019-03-09T09:49:02.083Z,1008.07
2019-03-09T09:50:02.364Z,1008.07
2019-03-09T09:51:02.531Z,1008.07
2019-03-09T09:52:01.777Z,1008.07
2019-03-09T09:53:01.854Z,1007.98
2019-03-09T09:54:01.995Z,1007.98
2019-03-09T09:55:02.310Z,1007.98
2019-03-09T09:56:02.491Z,1007.98
2019-03-09T09:57:01.725Z,1008.19
2019-03-09T09:58:01.883Z,1008.19
2019-03-09T09:59:02.100Z,1008.19
2019-03-09T10:00:04.747Z,1008.19
2019-03-09T10:01:01.588Z,1008.15
2019-03-09T10:02:01.895Z,1008.15
2019-03-09T10:03:02.425Z,1008.15
2019-03-09T10:04:04.749Z,1008.15
2019-03-09T10:05:02.017Z,1008.11
2019-03-09T10:06:01.993Z,1008.11
2019-03-09T10:07:02.110Z,1008.11
2019-03-09T10:08:02.396Z,1008.11
2019-03-09T10:09:01.680Z,1008.23
2019-03-09T10:10:01.872Z,1008.23
2019-03-09T10:11:01.801Z,1008.23
2019-03-09T10:12:02.079Z,1008.23
2019-03-09T10:13:02.246Z,1008.2
2019-03-09T10:14:02.461Z,1008.2
2019-03-09T10:15:01.868Z,1008.2
2019-03-09T10:16:01.971Z,1008.2
2019-03-09T10:17:02.187Z,1008.23
2019-03-09T10:18:02.380Z,1008.23
2019-03-09T10:19:01.611Z,1008.23
2019-03-09T10:20:01.884Z,1008.23
2019-03-09T10:21:02.054Z,1008
2019-03-09T10:22:02.288Z,1008
2019-03-09T10:23:05.307Z,1008
2019-03-09T10:24:01.698Z,1008
2019-03-09T10:25:02.021Z,1008.04
2019-03-09T10:26:02.114Z,1008.04
2019-03-09T10:27:02.304Z,1008.04
2019-03-09T10:28:02.585Z,1007.96
2019-03-09T10:29:01.743Z,1007.96
2019-03-09T10:30:02.539Z,1007.96
2019-03-09T10:31:02.323Z,1007.96
2019-03-09T10:32:02.534Z,1007.74
2019-03-09T10:33:01.753Z,1007.74
2019-03-09T10:34:02.053Z,1007.74
2019-03-09T10:35:02.239Z,1007.74
2019-03-09T10:36:02.476Z,1007.74
2019-03-09T10:37:01.714Z,1007.74
2019-03-09T10:38:01.825Z,1007.74
2019-03-09T10:39:02.113Z,1007.74
2019-03-09T10:40:02.404Z,1007.89
2019-03-09T10:41:02.548Z,1007.89
2019-03-09T10:42:01.799Z,1007.89
2019-03-09T10:43:02.035Z,1007.89
2019-03-09T10:44:02.273Z,1007.75
2019-03-09T10:45:02.509Z,1007.75
2019-03-09T10:46:01.754Z,1007.75
2019-03-09T10:47:01.961Z,1007.75
2019-03-09T10:48:02.189Z,1007.45
2019-03-09T10:49:02.346Z,1007.45
2019-03-09T10:50:02.650Z,1007.45
2019-03-09T10:51:01.862Z,1007.45
2019-03-09T10:52:02.150Z,1007.32
2019-03-09T10:53:02.444Z,1007.32
2019-03-09T10:54:01.593Z,1007.32
2019-03-09T10:55:01.851Z,1007.32
2019-03-09T10:56:02.130Z,1007.17
2019-03-09T10:57:02.283Z,1007.17
2019-03-09T10:58:02.538Z,1007.17
2019-03-09T10:59:01.784Z,1007.17
2019-03-09T11:00:03.831Z,1007.16
2019-03-09T11:01:02.537Z,1007.16
2019-03-09T11:02:01.684Z,1007.16
2019-03-09T11:03:01.989Z,1007.16
2019-03-09T11:04:02.216Z,1007.11
2019-03-09T11:05:02.473Z,1007.11
2019-03-09T11:06:01.775Z,1007.11
2019-03-09T11:07:02.024Z,1007.11
2019-03-09T11:08:02.204Z,1006.89
2019-03-09T11:09:02.461Z,1006.89
2019-03-09T11:10:01.837Z,1006.89
2019-03-09T11:11:01.909Z,1006.89
2019-03-09T11:12:02.136Z,1006.6
2019-03-09T11:13:01.947Z,1006.6
2019-03-09T11:14:02.115Z,1006.6
2019-03-09T11:15:02.399Z,1006.6
2019-03-09T11:16:01.630Z,1006.64
2019-03-09T11:17:01.814Z,1006.64
2019-03-09T11:18:02.167Z,1006.64
2019-03-09T11:19:02.364Z,1006.64
2019-03-09T11:20:01.661Z,1006.8
2019-03-09T11:21:01.827Z,1006.8
2019-03-09T11:22:02.089Z,1006.8
2019-03-09T11:23:02.214Z,1006.8
2019-03-09T11:24:02.438Z,1006.78
2019-03-09T11:25:04.347Z,1006.78
2019-03-09T11:26:01.888Z,1006.78
2019-03-09T11:27:02.143Z,1006.78
2019-03-09T11:28:02.299Z,1006.96
2019-03-09T11:29:02.548Z,1006.96
2019-03-09T11:30:02.163Z,1006.96
2019-03-09T11:31:02.448Z,1006.96
2019-03-09T11:32:01.726Z,1007.02
2019-03-09T11:33:01.955Z,1007.02
2019-03-09T11:34:02.138Z,1007.02
2019-03-09T11:35:02.000Z,1007.02
2019-03-09T11:36:02.463Z,1006.84
2019-03-09T11:37:01.700Z,1006.84
2019-03-09T11:38:01.911Z,1006.84
2019-03-09T11:39:02.090Z,1006.84
2019-03-09T11:40:02.461Z,1006.57
2019-03-09T11:41:02.643Z,1006.57
2019-03-09T11:42:01.852Z,1006.57
2019-03-09T11:43:01.997Z,1006.57
2019-03-09T11:44:02.145Z,1006.53
2019-03-09T11:45:02.380Z,1006.53
2019-03-09T11:46:02.654Z,1006.53
2019-03-09T11:47:01.808Z,1006.53
2019-03-09T11:48:02.048Z,1006.44
2019-03-09T11:49:01.975Z,1006.44
2019-03-09T11:50:02.275Z,1006.44
2019-03-09T11:51:02.550Z,1006.44
2019-03-09T11:52:01.690Z,1006.38
2019-03-09T11:53:01.851Z,1006.38
2019-03-09T11:54:05.665Z,1006.38
2019-03-09T11:55:02.486Z,1006.38
2019-03-09T11:56:01.639Z,1006.29
2019-03-09T11:57:01.926Z,1006.29
2019-03-09T11:58:02.095Z,1006.29
2019-03-09T11:59:02.273Z,1006.29
2019-03-09T12:00:04.316Z,1006.23
2019-03-09T12:01:02.145Z,1006.23
2019-03-09T12:02:02.407Z,1006.23
2019-03-09T12:03:02.560Z,1006.23
2019-03-09T12:04:01.831Z,1006.28
2019-03-09T12:05:02.068Z,1006.28
2019-03-09T12:06:02.378Z,1006.28
2019-03-09T12:07:02.515Z,1006.27